createdAt,value
2023-04-25T00:02:00.841Z,74.86
2023-04-25T00:04:28.530Z,73.61
2023-04-25T00:06:56.120Z,73.75
2023-04-25T00:09:23.199Z,72.24
2023-04-25T00:11:49.768Z,72.78
2023-04-25T00:14:17.781Z,75.45
2023-04-25T00:16:45.017Z,80.46
2023-04-25T00:19:11.844Z,79.46
2023-04-25T00:21:41.511Z,81.01
2023-04-25T00:24:08.756Z,81.27
2023-04-25T00:26:36.281Z,82.99
2023-04-25T00:29:04.035Z,79.92
2023-04-25T00:31:31.459Z,78.50
2023-04-25T00:33:59.898Z,77.29
2023-04-25T00:36:26.979Z,79.21
2023-04-25T00:38:54.353Z,76.52
2023-04-25T00:41:21.018Z,76.25
2023-04-25T00:43:49.052Z,76.01
2023-04-25T00:46:16.037Z,76.21
2023-04-25T00:48:43.844Z,74.27
2023-04-25T00:51:13.221Z,77.06
2023-04-25T00:53:39.673Z,77.97
2023-04-25T00:56:07.228Z,75.27
2023-04-25T00:58:33.764Z,75.64
2023-04-25T01:01:02.205Z,74.84
2023-04-25T01:03:29.779Z,74.92
2023-04-25T01:05:56.941Z,76.67
2023-04-25T01:08:26.400Z,72.17
2023-04-25T01:10:52.943Z,70.72
2023-04-25T01:13:20.327Z,73.38
2023-04-25T01:15:47.098Z,72.99
2023-04-25T01:18:13.921Z,72.80
2023-04-25T01:20:41.806Z,74.88
2023-04-25T01:23:09.057Z,73.59
2023-04-25T01:25:35.978Z,76.31
2023-04-25T01:28:02.913Z,72.42
2023-04-25T01:30:30.266Z,72.15
2023-04-25T01:32:59.225Z,70.18
2023-04-25T01:35:26.059Z,72.56
2023-04-25T01:37:53.109Z,76.00
2023-04-25T01:40:21.887Z,75.80
2023-04-25T01:42:49.116Z,73.44
2023-04-25T01:45:16.029Z,75.95
2023-04-25T01:47:44.015Z,71.27
2023-04-25T01:50:12.457Z,69.91
2023-04-25T01:52:39.589Z,68.76
2023-04-25T01:55:07.757Z,68.47
2023-04-25T01:57:34.451Z,70.32
2023-04-25T02:00:02.265Z,70.50
2023-04-25T02:02:29.257Z,68.94
2023-04-25T02:04:57.247Z,66.33
2023-04-25T02:07:24.041Z,67.31
2023-04-25T02:09:50.972Z,67.89
2023-04-25T02:12:18.665Z,69.20
2023-04-25T02:14:45.810Z,69.70
2023-04-25T02:17:13.680Z,65.63
2023-04-25T02:19:40.497Z,66.55
2023-04-25T02:22:07.344Z,67.73
2023-04-25T02:24:35.887Z,66.95
2023-04-25T02:27:02.705Z,67.60
2023-04-25T02:29:31.903Z,65.77
2023-04-25T02:31:58.988Z,62.92
2023-04-25T02:34:25.605Z,63.27
2023-04-25T02:36:52.619Z,60.99
2023-04-25T02:39:19.702Z,60.97
2023-04-25T02:41:46.496Z,59.76
2023-04-25T02:44:13.017Z,60.17
2023-04-25T02:46:40.023Z,60.61
2023-04-25T02:49:07.880Z,60.01
2023-04-25T02:51:34.707Z,61.28
2023-04-25T02:54:02.546Z,60.53
2023-04-25T02:56:29.044Z,60.48
2023-04-25T02:58:56.221Z,61.72
2023-04-25T03:01:24.097Z,61.12
2023-04-25T03:03:51.040Z,62.54
2023-04-25T03:06:18.760Z,63.29
2023-04-25T03:08:45.542Z,62.92
2023-04-25T03:11:12.241Z,63.46
2023-04-25T03:13:39.255Z,62.50
2023-04-25T03:16:06.634Z,61.37
2023-04-25T03:18:33.431Z,62.33
2023-04-25T03:21:00.580Z,61.43
2023-04-25T03:23:27.574Z,61.58
2023-04-25T03:25:54.300Z,61.22
2023-04-25T03:28:21.522Z,59.45
2023-04-25T03:30:48.204Z,59.91
2023-04-25T03:33:15.192Z,59.67
2023-04-25T03:35:42.290Z,61.37
2023-04-25T03:38:09.251Z,61.01
2023-04-25T03:40:36.190Z,59.92
2023-04-25T03:43:03.007Z,58.86
2023-04-25T03:45:30.286Z,59.40
2023-04-25T03:47:57.142Z,59.40
2023-04-25T03:50:24.070Z,60.72
2023-04-25T03:52:51.855Z,59.18
2023-04-25T03:55:18.630Z,58.53
2023-04-25T03:57:45.550Z,59.35
2023-04-25T04:00:13.142Z,59.21
2023-04-25T04:02:40.646Z,59.52
2023-04-25T04:05:08.901Z,58.94
2023-04-25T04:07:40.850Z,59.40
2023-04-25T04:10:08.418Z,58.91
2023-04-25T04:12:35.262Z,58.59
2023-04-25T04:15:03.210Z,58.90
2023-04-25T04:17:29.664Z,58.60
2023-04-25T04:19:56.597Z,58.51
2023-04-25T04:22:24.470Z,57.98
2023-04-25T04:24:51.467Z,57.49
2023-04-25T04:27:19.069Z,57.46
2023-04-25T04:29:46.268Z,57.91
2023-04-25T04:32:13.205Z,57.74
2023-04-25T04:34:40.317Z,56.34
2023-04-25T04:37:08.314Z,56.68
2023-04-25T04:39:35.195Z,56.41
2023-04-25T04:42:02.865Z,55.91
2023-04-25T04:44:36.387Z,55.34
2023-04-25T04:47:04.855Z,55.21
2023-04-25T04:49:31.953Z,54.58
2023-04-25T04:51:59.773Z,54.80
2023-04-25T04:54:26.805Z,55.08
2023-04-25T04:56:53.910Z,54.83
2023-04-25T04:59:20.705Z,55.64
2023-04-25T05:01:47.820Z,55.42
2023-04-25T05:04:14.514Z,54.86
2023-04-25T05:06:41.561Z,55.30
2023-04-25T05:09:08.187Z,54.45
2023-04-25T05:11:34.741Z,53.01
2023-04-25T05:14:01.319Z,52.36
2023-04-25T05:16:28.427Z,52.36
2023-04-25T05:18:55.677Z,52.28
2023-04-25T05:21:22.812Z,51.00
2023-04-25T05:23:49.681Z,50.73
2023-04-25T05:26:16.685Z,51.09
2023-04-25T05:28:43.701Z,51.59
2023-04-25T05:31:11.349Z,51.21
2023-04-25T05:33:38.253Z,51.72
2023-04-25T05:36:05.191Z,52.17
2023-04-25T05:38:34.526Z,52.11
2023-04-25T05:41:02.600Z,52.72
2023-04-25T05:43:29.757Z,54.03
2023-04-25T05:45:56.422Z,58.03
2023-04-25T05:48:23.528Z,58.83
2023-04-25T05:50:50.209Z,59.86
2023-04-25T05:53:18.083Z,59.22
2023-04-25T05:55:47.425Z,59.16
2023-04-25T05:58:14.303Z,59.17
2023-04-25T06:00:42.645Z,59.93
2023-04-25T06:03:10.998Z,59.09
2023-04-25T06:05:37.814Z,58.65
2023-04-25T06:08:04.849Z,58.49
2023-04-25T06:10:32.539Z,58.33
2023-04-25T06:12:59.370Z,58.10
2023-04-25T06:15:28.866Z,57.39
2023-04-25T06:17:57.412Z,58.67
2023-04-25T06:20:25.495Z,58.14
2023-04-25T06:22:53.705Z,57.62
2023-04-25T06:25:22.352Z,56.40
2023-04-25T06:27:49.465Z,55.14
2023-04-25T06:30:17.584Z,56.04
2023-04-25T06:32:44.358Z,57.37
2023-04-25T06:35:12.521Z,56.60
2023-04-25T06:37:39.328Z,54.10
2023-04-25T06:40:06.461Z,53.50
2023-04-25T06:42:33.750Z,53.52
2023-04-25T06:45:00.496Z,54.36
2023-04-25T06:47:27.309Z,53.78
2023-04-25T06:49:53.812Z,55.54
2023-04-25T06:52:20.613Z,55.86
2023-04-25T06:54:53.326Z,57.10
2023-04-25T06:57:20.640Z,56.68
2023-04-25T06:59:48.997Z,58.09
2023-04-25T07:02:15.581Z,56.37
2023-04-25T07:04:43.001Z,56.78
2023-04-25T07:07:09.751Z,58.47
2023-04-25T07:09:38.846Z,59.62
2023-04-25T07:12:06.851Z,57.84
2023-04-25T07:14:36.106Z,57.16
2023-04-25T07:17:03.069Z,55.37
2023-04-25T07:19:30.992Z,53.61
2023-04-25T07:21:57.560Z,55.19
2023-04-25T07:24:24.578Z,56.79
2023-04-25T07:26:51.938Z,56.48
2023-04-25T07:29:19.008Z,53.99
2023-04-25T07:31:45.605Z,53.30
2023-04-25T07:34:13.054Z,52.12
2023-04-25T07:36:39.830Z,54.02
2023-04-25T07:39:06.533Z,53.65
2023-04-25T07:41:33.489Z,52.30
2023-04-25T07:44:00.603Z,52.10
2023-04-25T07:46:27.455Z,51.71
2023-04-25T07:48:54.200Z,51.45
2023-04-25T07:51:23.049Z,50.99
2023-04-25T07:53:50.699Z,52.31
2023-04-25T07:56:17.847Z,51.94
2023-04-25T07:58:44.449Z,50.77
2023-04-25T08:01:12.760Z,50.96
2023-04-25T08:03:40.136Z,50.79
2023-04-25T08:06:08.284Z,51.38
2023-04-25T08:08:35.325Z,50.10
2023-04-25T08:11:03.318Z,49.17
2023-04-25T08:13:29.784Z,48.80
2023-04-25T08:15:58.331Z,49.06
2023-04-25T08:18:24.939Z,48.03
2023-04-25T08:20:52.784Z,47.76
2023-04-25T08:23:21.285Z,50.90
2023-04-25T08:25:47.974Z,49.98
2023-04-25T08:28:17.399Z,48.26
2023-04-25T08:30:44.929Z,48.39
2023-04-25T08:33:15.755Z,50.33
2023-04-25T08:35:46.440Z,53.19
2023-04-25T08:38:20.227Z,59.79
2023-04-25T08:41:00.339Z,61.08
2023-04-25T08:43:30.698Z,61.39
2023-04-25T08:46:02.385Z,62.65
2023-04-25T08:48:32.042Z,60.09
2023-04-25T08:50:59.554Z,61.59
2023-04-25T08:53:28.479Z,59.09
2023-04-25T08:55:57.072Z,57.44
2023-04-25T08:58:24.648Z,54.61
2023-04-25T09:00:57.377Z,52.62
2023-04-25T09:03:24.055Z,49.38
2023-04-25T09:05:51.224Z,48.67
2023-04-25T09:08:18.346Z,49.08
2023-04-25T09:10:45.632Z,49.56
2023-04-25T09:13:20.577Z,48.90
2023-04-25T09:15:55.829Z,49.56
2023-04-25T09:18:29.846Z,48.54
2023-04-25T09:21:01.952Z,48.14
2023-04-25T09:23:31.304Z,46.71
2023-04-25T09:25:58.475Z,46.54
2023-04-25T09:28:30.858Z,45.94
2023-04-25T09:30:58.514Z,47.50
2023-04-25T09:33:33.570Z,46.90
2023-04-25T09:36:09.531Z,47.53
2023-04-25T09:38:43.165Z,46.21
2023-04-25T09:41:11.785Z,46.08
2023-04-25T09:43:40.851Z,45.89
2023-04-25T09:46:12.495Z,45.68
2023-04-25T09:48:39.073Z,44.92
2023-04-25T09:51:07.064Z,44.28
2023-04-25T09:53:39.254Z,45.69
2023-04-25T09:56:07.865Z,44.09
2023-04-25T09:58:35.680Z,45.28
2023-04-25T10:01:10.848Z,43.43
2023-04-25T10:03:39.066Z,43.09
2023-04-25T10:06:09.068Z,44.09
2023-04-25T10:08:37.156Z,44.62
2023-04-25T10:11:15.476Z,46.43
2023-04-25T10:13:43.129Z,44.17
2023-04-25T10:16:13.182Z,43.95
2023-04-25T10:18:45.284Z,43.58
2023-04-25T10:21:15.296Z,43.07
2023-04-25T10:23:45.436Z,43.36
2023-04-25T10:26:14.524Z,44.58
2023-04-25T10:28:57.347Z,44.71
2023-04-25T10:31:26.936Z,45.42
2023-04-25T10:33:54.460Z,46.86
2023-04-25T10:36:22.527Z,52.75
2023-04-25T10:38:51.552Z,55.95
2023-04-25T10:41:22.657Z,56.68
2023-04-25T10:43:51.681Z,54.07
2023-04-25T10:46:32.315Z,52.08
2023-04-25T10:49:00.649Z,52.09
2023-04-25T10:51:37.159Z,52.26
2023-04-25T10:54:16.842Z,50.98
2023-04-25T10:56:46.239Z,48.68
2023-04-25T10:59:17.323Z,48.79
2023-04-25T11:01:48.355Z,48.99
2023-04-25T11:04:28.327Z,50.09
2023-04-25T11:07:16.486Z,50.62
2023-04-25T11:09:43.482Z,49.30
2023-04-25T11:12:17.931Z,48.73
2023-04-25T11:14:45.152Z,48.75
2023-04-25T11:17:15.868Z,48.08
2023-04-25T11:19:42.667Z,46.59
2023-04-25T11:22:16.435Z,46.63
2023-04-25T11:24:43.917Z,45.05
2023-04-25T11:27:12.470Z,45.04
2023-04-25T11:29:40.448Z,44.07
2023-04-25T11:32:12.077Z,41.56
2023-04-25T11:34:38.758Z,43.22
2023-04-25T11:37:07.686Z,42.87
2023-04-25T11:39:35.149Z,43.27
2023-04-25T11:42:03.728Z,43.85
2023-04-25T11:44:33.314Z,44.96
2023-04-25T11:47:00.069Z,47.02
2023-04-25T11:49:32.406Z,52.82
2023-04-25T11:51:59.676Z,58.52
2023-04-25T11:54:27.619Z,61.74
2023-04-25T11:56:54.609Z,62.00
2023-04-25T11:59:29.197Z,60.85
2023-04-25T12:01:56.110Z,61.33
2023-04-25T12:04:24.546Z,61.15
2023-04-25T12:06:54.362Z,58.11
2023-04-25T12:09:29.196Z,55.65
2023-04-25T12:11:57.174Z,52.82
2023-04-25T12:14:31.234Z,54.44
2023-04-25T12:17:00.810Z,53.31
2023-04-25T12:19:28.047Z,52.60
2023-04-25T12:21:59.277Z,50.33
2023-04-25T12:24:28.718Z,50.15
2023-04-25T12:27:05.143Z,50.03
2023-04-25T12:29:41.844Z,49.14
2023-04-25T12:32:16.469Z,47.86
2023-04-25T12:34:43.135Z,47.43
2023-04-25T12:37:14.038Z,48.02
2023-04-25T12:39:41.623Z,49.20
2023-04-25T12:42:12.850Z,49.30
2023-04-25T12:44:41.617Z,48.89
2023-04-25T12:47:08.812Z,49.29
2023-04-25T12:49:39.806Z,52.28
2023-04-25T12:52:09.533Z,53.08
2023-04-25T12:54:39.675Z,51.39
2023-04-25T12:57:06.995Z,48.95
2023-04-25T12:59:33.597Z,47.23
2023-04-25T13:02:02.871Z,47.63
2023-04-25T13:04:31.241Z,48.17
2023-04-25T13:06:59.268Z,49.22
2023-04-25T13:09:26.827Z,49.51
2023-04-25T13:12:02.724Z,47.09
2023-04-25T13:14:31.666Z,45.47
2023-04-25T13:17:05.877Z,45.26
2023-04-25T13:19:38.057Z,44.59
2023-04-25T13:22:20.870Z,43.44
2023-04-25T13:24:49.299Z,43.35
2023-04-25T13:27:16.649Z,42.60
2023-04-25T13:29:44.206Z,43.46
2023-04-25T13:32:11.471Z,43.49
2023-04-25T13:34:38.788Z,43.67
2023-04-25T13:37:06.291Z,43.87
2023-04-25T13:39:33.375Z,44.08
2023-04-25T13:42:07.725Z,43.43
2023-04-25T13:44:34.512Z,42.73
2023-04-25T13:47:02.039Z,42.10
2023-04-25T13:49:31.916Z,42.10
2023-04-25T13:51:58.580Z,42.65
2023-04-25T13:54:26.891Z,42.41
2023-04-25T13:56:56.246Z,42.57
2023-04-25T13:59:22.970Z,42.96
2023-04-25T14:01:51.313Z,42.59
2023-04-25T14:04:18.042Z,43.62
2023-04-25T14:06:45.142Z,43.82
2023-04-25T14:09:13.671Z,44.70
2023-04-25T14:11:40.764Z,44.91
2023-04-25T14:14:08.457Z,46.63
2023-04-25T14:16:35.767Z,46.37
2023-04-25T14:19:02.948Z,45.30
2023-04-25T14:21:32.687Z,45.12
2023-04-25T14:23:59.905Z,46.23
2023-04-25T14:26:27.014Z,45.60
2023-04-25T14:28:54.048Z,46.11
2023-04-25T14:31:21.326Z,45.79
2023-04-25T14:33:48.068Z,45.67
2023-04-25T14:36:16.270Z,45.32
2023-04-25T14:38:43.414Z,45.08
2023-04-25T14:41:10.376Z,44.64
2023-04-25T14:43:43.256Z,44.32
2023-04-25T14:46:12.195Z,44.07
2023-04-25T14:48:39.192Z,43.17
2023-04-25T14:51:07.791Z,43.82
2023-04-25T14:53:34.741Z,43.96
2023-04-25T14:56:03.298Z,46.62
2023-04-25T14:58:31.171Z,53.70
2023-04-25T15:00:59.267Z,61.03
2023-04-25T15:03:27.872Z,67.59
2023-04-25T15:05:57.718Z,68.46
2023-04-25T15:08:25.740Z,66.68
2023-04-25T15:10:52.485Z,62.76
2023-04-25T15:13:20.379Z,62.17
2023-04-25T15:15:52.408Z,61.14
2023-04-25T15:18:23.892Z,58.00
2023-04-25T15:20:53.761Z,55.17
2023-04-25T15:23:21.500Z,56.98
2023-04-25T15:25:48.819Z,56.91
2023-04-25T15:28:17.390Z,54.81
2023-04-25T15:30:46.867Z,53.23
2023-04-25T15:33:15.795Z,51.97
2023-04-25T15:35:43.261Z,51.82
2023-04-25T15:38:12.961Z,51.60
2023-04-25T15:40:40.375Z,50.55
2023-04-25T15:43:07.919Z,49.49
2023-04-25T15:45:35.891Z,48.45
2023-04-25T15:48:02.828Z,48.79
2023-04-25T15:50:29.921Z,50.06
2023-04-25T15:52:59.557Z,50.09
2023-04-25T15:55:31.049Z,48.84
2023-04-25T15:57:58.269Z,47.06
2023-04-25T16:00:25.997Z,47.13
2023-04-25T16:02:52.953Z,46.52
2023-04-25T16:05:22.836Z,46.06
2023-04-25T16:07:50.206Z,46.95
2023-04-25T16:10:24.763Z,47.89
2023-04-25T16:12:54.905Z,46.74
2023-04-25T16:15:21.706Z,47.47
2023-04-25T16:17:48.636Z,46.46
2023-04-25T16:20:18.214Z,47.03
2023-04-25T16:22:47.338Z,46.62
2023-04-25T16:25:16.185Z,46.52
2023-04-25T16:27:49.808Z,45.86
2023-04-25T16:30:16.863Z,46.21
2023-04-25T16:32:45.649Z,45.55
2023-04-25T16:35:13.043Z,45.67
2023-04-25T16:37:39.449Z,45.44
2023-04-25T16:40:10.014Z,46.69
2023-04-25T16:42:38.266Z,51.68
2023-04-25T16:45:05.480Z,57.70
2023-04-25T16:47:32.603Z,61.42
2023-04-25T16:50:00.262Z,63.49
2023-04-25T16:52:27.091Z,64.67
2023-04-25T16:54:55.308Z,63.71
2023-04-25T16:57:26.641Z,63.05
2023-04-25T16:59:55.177Z,62.69
2023-04-25T17:02:25.394Z,62.00
2023-04-25T17:04:52.470Z,60.93
2023-04-25T17:07:24.228Z,59.22
2023-04-25T17:10:11.973Z,57.31
2023-04-25T17:12:40.054Z,57.86
2023-04-25T17:15:08.615Z,57.72
2023-04-25T17:17:36.321Z,57.25
2023-04-25T17:20:06.184Z,56.86
2023-04-25T17:22:40.876Z,55.74
2023-04-25T17:25:16.932Z,55.75
2023-04-25T17:27:45.015Z,56.10
2023-04-25T17:30:17.584Z,56.46
2023-04-25T17:32:45.088Z,54.78
2023-04-25T17:35:18.968Z,55.74
2023-04-25T17:37:48.673Z,54.58
2023-04-25T17:40:18.088Z,54.70
2023-04-25T17:42:48.285Z,55.21
2023-04-25T17:45:15.114Z,55.40
2023-04-25T17:47:45.995Z,55.42
2023-04-25T17:50:17.470Z,57.03
2023-04-25T17:52:45.534Z,58.71
2023-04-25T17:55:12.387Z,59.90
2023-04-25T17:57:39.192Z,57.72
2023-04-25T18:00:09.428Z,57.46
2023-04-25T18:02:42.227Z,56.79
2023-04-25T18:05:15.779Z,55.19
2023-04-25T18:07:42.928Z,54.56
2023-04-25T18:10:11.726Z,53.73
2023-04-25T18:12:43.088Z,52.23
2023-04-25T18:15:11.538Z,51.58
2023-04-25T18:17:41.768Z,51.40
2023-04-25T18:20:15.228Z,52.54
2023-04-25T18:22:45.052Z,53.09
2023-04-25T18:25:13.891Z,53.00
2023-04-25T18:27:41.578Z,53.30
2023-04-25T18:30:11.743Z,52.26
2023-04-25T18:32:41.201Z,54.06
2023-04-25T18:35:10.271Z,54.51
2023-04-25T18:37:37.290Z,54.53
2023-04-25T18:40:07.052Z,54.22
2023-04-25T18:42:33.689Z,53.87
2023-04-25T18:45:02.460Z,54.16
2023-04-25T18:47:29.584Z,54.11
2023-04-25T18:49:57.252Z,53.91
2023-04-25T18:52:29.917Z,53.19
2023-04-25T18:54:56.844Z,53.57
2023-04-25T18:57:23.867Z,54.56
2023-04-25T18:59:52.695Z,54.10
2023-04-25T19:02:20.544Z,53.91
2023-04-25T19:04:47.598Z,54.37
2023-04-25T19:07:16.894Z,54.79
2023-04-25T19:09:46.584Z,54.63
2023-04-25T19:12:13.743Z,55.11
2023-04-25T19:14:44.021Z,55.16
2023-04-25T19:17:13.961Z,54.37
2023-04-25T19:19:41.209Z,54.80
2023-04-25T19:22:11.775Z,54.21
2023-04-25T19:24:44.687Z,54.15
2023-04-25T19:27:18.384Z,55.52
2023-04-25T19:29:57.713Z,55.31
2023-04-25T19:32:29.653Z,54.32
2023-04-25T19:34:56.996Z,54.14
2023-04-25T19:37:26.797Z,54.26
2023-04-25T19:39:57.631Z,54.49
2023-04-25T19:42:30.410Z,55.47
2023-04-25T19:45:03.547Z,54.85
2023-04-25T19:47:33.463Z,53.70
2023-04-25T19:50:09.263Z,53.19
2023-04-25T19:52:40.132Z,53.56
2023-04-25T19:55:08.309Z,53.90
2023-04-25T19:57:39.464Z,54.56
2023-04-25T20:00:14.467Z,54.74
2023-04-25T20:02:53.744Z,54.26
2023-04-25T20:05:24.442Z,54.96
2023-04-25T20:07:54.031Z,54.45
2023-04-25T20:10:32.390Z,53.46
2023-04-25T20:13:05.772Z,54.67
2023-04-25T20:15:37.952Z,57.29
2023-04-25T20:18:09.313Z,58.31
2023-04-25T20:20:36.937Z,56.54
2023-04-25T20:23:08.587Z,55.35
2023-04-25T20:25:35.935Z,54.81
2023-04-25T20:28:05.682Z,55.04
2023-04-25T20:30:40.412Z,55.42
2023-04-25T20:33:12.841Z,55.02
2023-04-25T20:35:50.436Z,55.45
2023-04-25T20:38:23.471Z,55.10
2023-04-25T20:40:54.058Z,56.41
2023-04-25T20:43:27.086Z,56.24
2023-04-25T20:45:58.590Z,55.88
2023-04-25T20:48:30.928Z,56.19
2023-04-25T20:51:11.854Z,55.91
2023-04-25T20:53:42.510Z,56.27
2023-04-25T20:56:14.402Z,56.71
2023-04-25T20:58:42.821Z,57.43
2023-04-25T21:01:09.602Z,57.17
2023-04-25T21:03:36.875Z,56.35
2023-04-25T21:06:07.939Z,56.92
2023-04-25T21:08:35.703Z,57.64
2023-04-25T21:11:03.712Z,57.33
2023-04-25T21:13:31.979Z,56.28
2023-04-25T21:15:59.854Z,55.64
2023-04-25T21:18:32.288Z,56.78
2023-04-25T21:20:59.229Z,56.76
2023-04-25T21:23:32.545Z,56.46
2023-04-25T21:26:00.035Z,56.12
2023-04-25T21:28:27.351Z,56.07
2023-04-25T21:30:56.771Z,56.64
2023-04-25T21:33:23.580Z,57.23
2023-04-25T21:35:50.504Z,56.68
2023-04-25T21:38:19.645Z,56.22
2023-04-25T21:40:46.849Z,55.72
2023-04-25T21:43:14.341Z,56.58
2023-04-25T21:46:02.141Z,56.83
2023-04-25T21:48:28.320Z,57.79
2023-04-25T21:50:56.234Z,58.33
2023-04-25T21:53:23.618Z,58.47
2023-04-25T21:55:50.883Z,58.83
2023-04-25T21:58:19.752Z,58.59
2023-04-25T22:00:49.990Z,57.48
2023-04-25T22:03:20.174Z,58.05
2023-04-25T22:05:51.007Z,58.39
2023-04-25T22:08:18.794Z,58.44
2023-04-25T22:10:47.966Z,59.09
2023-04-25T22:13:16.227Z,59.40
2023-04-25T22:15:42.999Z,58.64
2023-04-25T22:18:10.339Z,59.76
2023-04-25T22:20:37.249Z,59.65
2023-04-25T22:23:04.198Z,59.15
2023-04-25T22:25:31.884Z,59.55
2023-04-25T22:28:00.334Z,60.50
2023-04-25T22:30:32.678Z,60.57
2023-04-25T22:32:59.468Z,60.12
2023-04-25T22:35:26.823Z,59.23
2023-04-25T22:37:53.890Z,59.76
2023-04-25T22:40:22.479Z,59.99
2023-04-25T22:42:50.178Z,59.57
2023-04-25T22:45:17.398Z,57.96
2023-04-25T22:47:45.964Z,57.88
2023-04-25T22:50:13.957Z,59.23
2023-04-25T22:52:42.594Z,59.12
2023-04-25T22:55:11.097Z,58.51
2023-04-25T22:57:38.977Z,59.53
2023-04-25T23:00:10.915Z,60.58
2023-04-25T23:02:40.786Z,60.38
2023-04-25T23:05:08.379Z,60.82
2023-04-25T23:07:38.332Z,60.08
2023-04-25T23:10:09.020Z,61.09
2023-04-25T23:12:36.460Z,60.67
2023-04-25T23:15:05.418Z,60.79
2023-04-25T23:17:35.535Z,59.93
2023-04-25T23:20:05.294Z,59.39
2023-04-25T23:22:36.620Z,60.62
2023-04-25T23:25:04.041Z,60.89
2023-04-25T23:27:33.501Z,61.25
2023-04-25T23:30:06.258Z,62.20
2023-04-25T23:32:35.468Z,63.23
2023-04-25T23:35:02.530Z,62.80
2023-04-25T23:37:32.129Z,61.57
2023-04-25T23:39:59.055Z,61.53
2023-04-25T23:42:29.429Z,60.87
2023-04-25T23:44:56.331Z,62.30
2023-04-25T23:47:29.624Z,61.70
2023-04-25T23:49:56.932Z,61.45
2023-04-25T23:52:23.760Z,62.14
2023-04-25T23:54:54.562Z,63.56
2023-04-25T23:57:23.510Z,63.26
2023-04-25T23:59:53.556Z,63.78
